Latest Weather Observations for Jimna

IDQ60801

Issued at 4:32 pm EST Tuesday 28 April 2015 (issued every 30 minutes, with the page automatically refreshed every 10 minutes)

About weather observations | Map of weather stations | Latest weather observations for QLD | Other Formats
Station Details ID: 040651 Name: JIMNA FORESTRY Lat: -26.66 Lon: 152.46 Height: 523.0 m
Data from the previous 72 hours. | See also: Recent months at Jimna
Date/Time
EST
Temp
°C
App
Temp
°C
Dew
Point
Rel
Hum
%
Delta-T
°C
Wind Press
QNH
hPa
Press
MSL
hPa
Rain
since 9 am
mm
Dir
 
Spd
km/h
Gust
km/h
Spd
kts
Gust
kts
28/04:30pm 17.1 - 10.7 66 3.5 - - - - - - - 0.0
28/04:00pm 18.3 - 10.9 62 4.1 - - - - - - - 0.0
28/03:30pm 18.6 - 10.4 59 4.5 - - - - - - - 0.0
28/03:00pm 18.9 - 12.9 68 3.5 - - - - - - - 0.0
28/02:30pm 18.2 - 11.7 66 3.7 - - - - - - - 0.0
28/02:00pm 18.8 - 11.6 63 4.1 - - - - - - - 0.0
28/01:30pm 19.0 - 11.6 62 4.2 - - - - - - - 0.0
28/01:00pm 18.6 - 12.1 66 3.7 - - - - - - - 0.0
28/12:30pm 18.9 - 11.0 60 4.4 - - - - - - - 0.0
28/12:00pm 18.8 - 12.5 67 3.6 - - - - - - - 0.0
28/11:30am 18.9 - 11.7 63 4.1 - - - - - - - 0.0
28/11:00am 18.7 - 11.0 61 4.3 - - - - - - - 0.0
28/10:30am 17.5 - 12.4 72 2.9 - - - - - - - 0.0
28/10:00am 17.2 - 10.1 63 3.9 - - - - - - - 0.0
28/09:30am 17.1 - 10.9 67 3.4 - - - - - - - 0.0
28/09:00am 16.7 - 10.3 66 3.5 - - - - - - - 0.0
28/08:30am 14.6 - 10.2 75 2.4 - - - - - - - 0.0
28/08:00am 12.6 - 10.7 88 1.0 - - - - - - - 0.0
28/07:30am 9.1 - - - - - - - - - - - 0.0
28/07:00am 7.1 - - - - - - - - - - - 0.0
28/06:30am 6.2 - - - - - - - - - - - 0.0
28/06:00am 6.1 - - - - - - - - - - - 0.0
28/05:30am 5.8 - 4.8 93 0.4 - - - - - - - 0.0
28/05:00am 6.1 - 5.1 93 0.5 - - - - - - - 0.0
28/04:30am 6.4 - - - - - - - - - - - 0.0
28/04:00am 6.2 - 4.8 91 0.6 - - - - - - - 0.0
28/03:30am 6.8 - 5.6 92 0.6 - - - - - - - 0.0
28/03:00am 7.2 - 6.3 94 0.4 - - - - - - - 0.0
28/02:30am 7.2 - 6.0 92 0.6 - - - - - - - 0.0
28/02:00am 7.6 - 7.2 97 0.2 - - - - - - - 0.0
28/01:30am 8.4 - - - - - - - - - - - 0.0
28/01:00am 7.5 - 6.3 92 0.6 - - - - - - - 0.0
28/12:30am 7.7 - 6.5 92 0.6 - - - - - - - 0.0
28/12:00am 7.9 - 6.5 91 0.7 - - - - - - - 0.0
 
Date/Time
EST
Temp
°C
App
Temp
°C
Dew
Point
Rel
Hum
%
Delta-T
°C
Wind Press
QNH
hPa
Press
MSL
hPa
Rain
since 9 am
mm
Dir
 
Spd
km/h
Gust
km/h
Spd
kts
Gust
kts
27/11:30pm 8.1 - 6.7 91 0.7 - - - - - - - 0.0
27/11:00pm 8.3 - 6.9 91 0.7 - - - - - - - 0.0
27/10:30pm 8.6 - 7.2 91 0.7 - - - - - - - 0.0
27/10:00pm 8.9 - 7.5 91 0.7 - - - - - - - 0.0
27/09:30pm 8.9 - 7.4 90 0.7 - - - - - - - 0.0
27/09:00pm 9.4 - 7.8 90 0.8 - - - - - - - 0.0
27/08:30pm 9.7 - 7.8 88 0.9 - - - - - - - 0.0
27/08:00pm 10.2 - 8.5 89 0.9 - - - - - - - 0.0
27/07:30pm 10.6 - 8.5 87 1.1 - - - - - - - 0.0
27/07:00pm 11.1 - 8.3 83 1.4 - - - - - - - 0.0
27/06:30pm 11.8 - 8.5 80 1.7 - - - - - - - 0.0
27/06:00pm 12.9 - 8.4 74 2.3 - - - - - - - 0.0
27/05:30pm 14.1 - 8.9 71 2.7 - - - - - - - 0.0
27/05:00pm 15.1 - 9.5 69 3.0 - - - - - - - 0.0
27/04:30pm 16.2 - 9.2 63 3.7 - - - - - - - 0.0
27/04:00pm 17.3 - 9.0 58 4.4 - - - - - - - 0.0
27/03:30pm 20.5 - 8.5 46 6.4 - - - - - - - 0.0
27/03:00pm 20.4 - 7.1 42 7.0 - - - - - - - 0.0
27/02:30pm 20.9 - 7.9 43 6.9 - - - - - - - 0.0
27/02:00pm 20.1 - 7.1 43 6.8 - - - - - - - 0.0
27/01:30pm 19.8 - 9.1 50 5.8 - - - - - - - 0.0
27/01:00pm 19.6 - 8.9 50 5.8 - - - - - - - 0.0
27/12:30pm 18.7 - 8.7 52 5.3 - - - - - - - 0.0
27/12:00pm 18.0 - 8.0 52 5.2 - - - - - - - 0.0
27/11:30am 17.7 - 8.3 54 4.9 - - - - - - - 0.0
27/11:00am 17.3 - 8.4 56 4.7 - - - - - - - 0.0
27/10:30am 15.9 - 7.1 56 4.5 - - - - - - - 0.0
27/10:00am 15.6 - 7.4 58 4.2 - - - - - - - 0.0
27/09:30am 14.2 - 6.8 61 3.7 - - - - - - - 0.0
27/09:00am 13.4 - 7.0 65 3.2 - - - - - - - 0.0
27/08:30am 11.9 - 6.0 67 2.8 - - - - - - - 0.0
27/08:00am 11.2 - 5.9 70 2.5 - - - - - - - 0.0
27/07:30am 10.2 - 6.7 79 1.7 - - - - - - - 0.0
27/07:00am 7.8 - 6.3 90 0.7 - - - - - - - 0.0
27/06:30am 6.6 - 5.2 91 0.6 - - - - - - - 0.0
27/06:00am 6.5 - 5.1 91 0.6 - - - - - - - 0.0
27/05:30am 6.4 - 4.9 90 0.7 - - - - - - - 0.0
27/05:00am 6.5 - 4.8 89 0.8 - - - - - - - 0.0
27/04:30am 6.9 - 4.9 87 0.9 - - - - - - - 0.0
27/04:00am 7.3 - 5.3 87 0.9 - - - - - - - 0.0
27/03:30am 7.3 - 5.4 88 0.9 - - - - - - - 0.0
27/03:00am 7.1 - 5.1 87 0.9 - - - - - - - 0.0
27/02:30am 7.2 - 4.9 85 1.0 - - - - - - - 0.0
27/02:00am 7.6 - 5.2 85 1.1 - - - - - - - 0.0
27/01:30am 7.9 - 5.0 82 1.3 - - - - - - - 0.0
27/01:00am 8.0 - 4.9 81 1.4 - - - - - - - 0.0
27/12:30am 9.1 - 5.1 76 1.9 - - - - - - - 0.0
27/12:00am 9.5 - 4.9 73 2.1 - - - - - - - 0.0
 
Date/Time
EST
Temp
°C
App
Temp
°C
Dew
Point
Rel
Hum
%
Delta-T
°C
Wind Press
QNH
hPa
Press
MSL
hPa
Rain
since 9 am
mm
Dir
 
Spd
km/h
Gust
km/h
Spd
kts
Gust
kts
26/11:30pm 9.7 - 4.5 70 2.4 - - - - - - - 0.0
26/11:00pm 10.8 - 4.9 67 2.8 - - - - - - - 0.0
26/10:30pm 9.5 - 4.9 73 2.1 - - - - - - - 0.0
26/10:00pm 10.3 - 4.5 67 2.7 - - - - - - - 0.0
26/09:30pm 11.4 - 4.2 61 3.3 - - - - - - - 0.0
26/09:00pm 12.1 - 4.3 59 3.6 - - - - - - - 0.0
26/08:30pm 11.8 - 4.1 59 3.6 - - - - - - - 0.0
26/08:00pm 12.5 - 4.0 56 3.9 - - - - - - - 0.0
26/07:30pm 12.7 - 3.4 53 4.3 - - - - - - - 0.0
26/07:00pm 13.0 - 3.4 52 4.4 - - - - - - - 0.0
26/06:30pm 13.1 - 3.5 52 4.4 - - - - - - - 0.0
26/06:00pm 13.6 - 3.7 51 4.6 - - - - - - - 0.0
26/05:30pm 14.7 - 2.6 44 5.6 - - - - - - - 0.0
26/05:00pm 15.8 - 2.6 41 6.1 - - - - - - - 0.0
26/04:30pm 16.6 - 2.2 38 6.7 - - - - - - - 0.0
26/04:00pm 17.4 - 1.0 33 7.4 - - - - - - - 0.0
26/03:30pm 18.4 - 1.4 32 7.8 - - - - - - - 0.0
26/03:00pm 18.5 - 1.5 32 7.9 - - - - - - - 0.0
26/02:30pm 18.5 - 0.6 30 8.1 - - - - - - - 0.0
26/02:00pm 18.9 - 1.9 32 8.0 - - - - - - - 0.0
26/01:30pm 18.9 - 1.9 32 8.0 - - - - - - - 0.0
26/01:00pm 19.0 - 1.5 31 8.1 - - - - - - - 0.0
26/12:30pm 18.7 - 1.2 31 8.1 - - - - - - - 0.0
26/12:00pm 18.3 - 0.9 31 7.9 - - - - - - - 0.0
26/11:30am 18.4 - 2.7 35 7.4 - - - - - - - 0.0
26/11:00am 17.7 - 2.5 36 7.1 - - - - - - - 0.0
26/10:30am 17.0 - 5.0 45 5.9 - - - - - - - 0.0
26/10:00am 16.6 - 4.6 45 5.8 - - - - - - - 0.0
26/09:30am 15.6 - 3.7 45 5.6 - - - - - - - 0.0
26/09:00am 14.9 - 3.4 46 5.4 - - - - - - - 0.0
26/08:30am 14.6 - 3.7 48 5.1 - - - - - - - 0.0
26/08:00am 14.1 - 3.8 50 4.8 - - - - - - - 0.0
26/07:30am 13.7 - 4.0 52 4.5 - - - - - - - 0.0
26/07:00am 12.7 - 3.9 55 4.1 - - - - - - - 0.0
26/06:30am 9.8 - 4.4 69 2.5 - - - - - - - 0.0
26/06:00am 9.6 - 5.0 73 2.1 - - - - - - - 0.0
26/05:30am 10.6 - 4.3 65 2.9 - - - - - - - 0.0
26/05:00am 10.5 - 5.3 70 2.4 - - - - - - - 0.0
26/04:30am 10.5 - 5.7 72 2.3 - - - - - - - 0.0
26/04:00am 11.3 - 5.8 69 2.6 - - - - - - - 0.0
26/03:30am 13.0 - 6.4 64 3.2 - - - - - - - 0.0
26/03:00am 14.3 - 5.9 57 4.1 - - - - - - - 0.0
26/02:30am 13.2 - 7.9 70 2.7 - - - - - - - 0.0
26/02:00am 13.5 - 6.4 62 3.5 - - - - - - - 0.0
26/01:30am 12.3 - 8.4 77 2.0 - - - - - - - 0.0
26/01:00am 11.4 - 8.6 83 1.4 - - - - - - - 0.0
26/12:30am 11.2 - 9.8 91 0.7 - - - - - - - 0.0
26/12:00am 10.9 - 9.3 90 0.8 - - - - - - - 0.0
 
Date/Time
EST
Temp
°C
App
Temp
°C
Dew
Point
Rel
Hum
%
Delta-T
°C
Wind Press
QNH
hPa
Press
MSL
hPa
Rain
since 9 am
mm
Dir
 
Spd
km/h
Gust
km/h
Spd
kts
Gust
kts
25/11:30pm 11.0 - 9.4 90 0.8 - - - - - - - 0.0
25/11:00pm 11.3 - 9.6 89 0.9 - - - - - - - 0.0
25/10:30pm 11.8 - 9.7 87 1.1 - - - - - - - 0.0
25/10:00pm 12.4 - 10.3 87 1.1 - - - - - - - 0.0
25/09:30pm 12.6 - 10.3 86 1.2 - - - - - - - 0.0
25/09:00pm 13.1 - 10.5 84 1.4 - - - - - - - 0.0
25/08:30pm 13.7 - 10.5 81 1.7 - - - - - - - 0.0
25/08:00pm 14.6 - 10.4 76 2.3 - - - - - - - 0.0
25/07:30pm 15.6 - 10.6 72 2.7 - - - - - - - 0.0
25/07:00pm 16.5 - 10.6 68 3.2 - - - - - - - 0.0
25/06:30pm 17.0 - 10.4 65 3.6 - - - - - - - 0.0
25/06:00pm 17.3 - 9.0 58 4.4 - - - - - - - 0.0
25/05:30pm 18.4 - 9.5 56 4.8 - - - - - - - 0.0
25/05:00pm 19.7 - 10.4 55 5.1 - - - - - - - 0.0

Other Formats:

Comma delimited format used in spreadsheet applications
http://www.bom.gov.au/fwo/IDQ60801/IDQ60801.94557.axf

JavaScript Object Notation format (JSON) in row-major order
http://www.bom.gov.au/fwo/IDQ60801/IDQ60801.94557.json